Time;durP1;ratioP1;P1;durP2;ratioP2;P2;SDS_P1;SDS_P2;PMS_P1;PMS_P2;Temp;Humidity;BMP_temperature;BMP_pressure;BME280_temperature;BME280_humidity;BME280_pressure;Samples;Min_cycle;Max_cycle;Signal;HPM_P1;HPM_P2
2023/12/09 00:01:27;;;;;;;18.98;13.93;;;;;;;8.81;100.00;97975.03;4150493;28;20217;-88
2023/12/09 00:03:30;;;;;;;21.47;13.03;;;;;;;8.80;100.00;97980.34;4157215;28;20214;-87
2023/12/09 00:05:34;;;;;;;19.40;13.80;;;;;;;8.81;100.00;97987.19;4144308;28;20679;-87
2023/12/09 00:07:37;;;;;;;22.23;13.95;;;;;;;8.82;100.00;97984.50;4141247;28;20215;-87
2023/12/09 00:09:42;;;;;;;19.50;12.88;;;;;;;8.83;100.00;97988.78;4140718;28;20306;-87
2023/12/09 00:11:45;;;;;;;20.73;13.50;;;;;;;8.84;100.00;97990.47;4146635;28;20829;-87
2023/12/09 00:13:49;;;;;;;17.25;13.57;;;;;;;8.85;100.00;97981.69;4141453;28;20218;-87
2023/12/09 00:15:52;;;;;;;19.25;13.52;;;;;;;8.87;100.00;97982.47;4140993;28;20202;-87
2023/12/09 00:17:55;;;;;;;20.05;14.43;;;;;;;8.88;100.00;97991.09;4143465;28;20222;-87
2023/12/09 00:19:59;;;;;;;17.80;13.27;;;;;;;8.89;100.00;97995.38;4154874;28;20190;-87
2023/12/09 00:22:02;;;;;;;24.67;15.65;;;;;;;8.89;100.00;97992.75;4140484;28;20216;-87
2023/12/09 00:24:06;;;;;;;25.10;17.80;;;;;;;8.90;100.00;97995.28;4139636;28;20230;-86
2023/12/09 00:26:10;;;;;;;26.10;19.85;;;;;;;8.92;100.00;97989.97;4158536;28;20220;-87
2023/12/09 00:28:14;;;;;;;29.17;18.05;;;;;;;8.93;100.00;97995.91;4142846;28;20692;-87
2023/12/09 00:30:17;;;;;;;26.98;17.58;;;;;;;8.95;100.00;97994.03;4146212;28;20277;-87
2023/12/09 00:32:20;;;;;;;30.23;16.20;;;;;;;8.95;100.00;97996.63;4145286;28;20230;-87
2023/12/09 00:34:24;;;;;;;25.80;16.38;;;;;;;8.95;100.00;97988.81;4140692;28;20210;-87
2023/12/09 00:36:27;;;;;;;20.15;14.10;;;;;;;8.95;100.00;97994.03;4126558;28;20228;-87
2023/12/09 00:38:30;;;;;;;22.42;14.95;;;;;;;8.93;100.00;97988.09;4145567;28;20202;-86
2023/12/09 00:40:34;;;;;;;23.50;16.27;;;;;;;8.93;100.00;97990.69;4145954;28;20204;-86
2023/12/09 00:42:38;;;;;;;21.67;15.70;;;;;;;8.93;100.00;97988.09;4157813;28;20641;-86
2023/12/09 00:44:41;;;;;;;21.73;15.82;;;;;;;8.94;100.00;97994.97;4134847;28;20262;-86
2023/12/09 00:46:47;;;;;;;18.38;13.98;;;;;;;8.95;100.00;97996.63;4127859;28;20204;-87
2023/12/09 00:48:50;;;;;;;17.60;12.07;;;;;;;8.95;100.00;97983.63;4141964;28;20228;-87
2023/12/09 00:50:54;;;;;;;21.65;13.77;;;;;;;8.97;100.00;97986.13;4144617;28;20210;-87
2023/12/09 00:52:57;;;;;;;16.00;12.20;;;;;;;8.98;100.00;97980.81;4121434;28;20332;-86
2023/12/09 00:55:00;;;;;;;18.05;11.70;;;;;;;9.00;100.00;97980.72;4155426;28;20231;-87
2023/12/09 00:57:03;;;;;;;16.85;11.40;;;;;;;9.00;100.00;97981.56;4143298;28;20223;-87
2023/12/09 00:59:08;;;;;;;14.57;10.95;;;;;;;8.98;100.00;97983.44;4121352;28;20212;-87
2023/12/09 01:01:13;;;;;;;15.52;10.48;;;;;;;8.98;100.00;97982.59;4126319;28;20200;-86
2023/12/09 01:03:15;;;;;;;18.67;11.50;;;;;;;8.99;100.00;97987.72;4134797;28;20211;-87
2023/12/09 01:05:19;;;;;;;19.33;13.13;;;;;;;8.97;100.00;97986.94;4128735;28;20235;-87
2023/12/09 01:07:22;;;;;;;22.50;14.70;;;;;;;8.94;100.00;97991.53;4143604;28;20208;-87
2023/12/09 01:09:25;;;;;;;20.20;14.30;;;;;;;8.93;100.00;97984.69;4142870;28;20230;-86
2023/12/09 01:11:28;;;;;;;20.48;14.55;;;;;;;8.92;100.00;97999.41;4127663;28;20678;-87
2023/12/09 01:13:31;;;;;;;20.87;14.37;;;;;;;8.94;100.00;97997.59;4140705;28;20203;-86
2023/12/09 01:15:35;;;;;;;21.60;13.40;;;;;;;8.94;100.00;98002.78;4142388;28;20621;-86
2023/12/09 01:17:39;;;;;;;25.73;14.27;;;;;;;8.95;100.00;98001.00;4145254;28;20662;-86
2023/12/09 01:19:42;;;;;;;22.50;13.53;;;;;;;8.95;100.00;98003.59;4143848;28;20679;-87
2023/12/09 01:21:45;;;;;;;19.67;13.55;;;;;;;8.96;100.00;97997.50;4161415;28;20636;-86
2023/12/09 01:23:48;;;;;;;19.20;13.20;;;;;;;8.95;100.00;98007.03;4127475;28;20208;-86
2023/12/09 01:25:53;;;;;;;17.40;12.35;;;;;;;8.97;100.00;98012.13;4144087;28;20674;-87
2023/12/09 01:27:55;;;;;;;19.10;12.35;;;;;;;8.99;100.00;98010.25;4136543;28;20200;-87
2023/12/09 01:29:59;;;;;;;19.85;12.45;;;;;;;9.00;100.00;98009.34;4142619;28;20226;-87
2023/12/09 01:32:04;;;;;;;19.02;13.23;;;;;;;9.00;100.00;98017.16;4123661;28;20220;-87
2023/12/09 01:34:07;;;;;;;20.33;12.40;;;;;;;9.00;100.00;98024.94;4136156;28;20314;-87
2023/12/09 01:36:11;;;;;;;18.00;13.63;;;;;;;9.00;100.00;98017.97;4127038;28;20666;-87
2023/12/09 01:38:14;;;;;;;17.75;13.20;;;;;;;9.01;100.00;98029.22;4144515;28;20650;-86
2023/12/09 01:40:17;;;;;;;17.60;12.60;;;;;;;9.01;100.00;98030.06;4129435;28;20649;-86
2023/12/09 01:42:20;;;;;;;17.27;11.57;;;;;;;9.02;100.00;98031.72;4144134;28;20779;-87
2023/12/09 01:44:23;;;;;;;16.70;12.68;;;;;;;9.00;100.00;98028.38;4138884;28;20733;-87
2023/12/09 01:46:27;;;;;;;18.02;12.40;;;;;;;9.01;100.00;98030.06;4141143;28;20262;-87
2023/12/09 01:48:31;;;;;;;20.20;12.50;;;;;;;9.02;100.00;98049.09;4143424;28;20666;-86
2023/12/09 01:50:34;;;;;;;19.90;12.73;;;;;;;9.01;100.00;98040.47;4126660;28;21294;-87
2023/12/09 01:52:38;;;;;;;19.00;13.10;;;;;;;9.01;100.00;98035.25;4143989;28;20621;-86
2023/12/09 01:54:41;;;;;;;22.38;12.48;;;;;;;9.02;100.00;98047.34;4120523;28;20220;-86
2023/12/09 01:56:43;;;;;;;15.60;11.98;;;;;;;9.01;100.00;98053.47;4137396;28;20208;-86
2023/12/09 01:58:46;;;;;;;17.70;11.10;;;;;;;9.01;100.00;98056.06;4124149;28;20246;-87
2023/12/09 02:00:50;;;;;;;21.60;12.93;;;;;;;9.02;100.00;98052.53;4139256;28;20238;-87
2023/12/09 02:02:53;;;;;;;18.77;11.73;;;;;;;9.02;100.00;98055.16;4139778;28;20262;-86
2023/12/09 02:04:58;;;;;;;21.75;13.02;;;;;;;9.00;100.00;98054.38;4138728;28;20299;-86
2023/12/09 02:07:02;;;;;;;20.27;13.30;;;;;;;8.99;100.00;98050.13;4155122;28;20704;-87
2023/12/09 02:09:05;;;;;;;19.92;12.43;;;;;;;9.01;100.00;98050.88;4159314;28;20206;-87
2023/12/09 02:11:18;;;;;;;17.50;12.43;;;;;;;9.03;100.00;98055.97;4140720;28;20204;-86
2023/12/09 02:13:39;;;;;;;22.17;12.70;;;;;;;9.03;100.00;98061.16;4157849;28;20203;-86
2023/12/09 02:15:50;;;;;;;18.70;12.48;;;;;;;9.02;100.00;98062.09;4155640;28;20211;-86
2023/12/09 02:17:56;;;;;;;22.27;13.82;;;;;;;9.03;100.00;98066.38;4156936;28;20226;-86
2023/12/09 02:20:01;;;;;;;15.18;11.30;;;;;;;9.01;100.00;98060.44;4142697;28;20291;-86
2023/12/09 02:22:06;;;;;;;14.93;11.52;;;;;;;8.98;100.00;98064.06;4126651;28;20235;-87
2023/12/09 02:24:10;;;;;;;16.08;10.98;;;;;;;8.99;100.00;98060.53;4123746;28;20216;-87
2023/12/09 02:26:18;;;;;;;23.70;12.13;;;;;;;8.96;100.00;98055.53;4143105;28;20207;-86
2023/12/09 02:28:25;;;;;;;16.80;12.10;;;;;;;8.95;100.00;98050.41;4130110;28;20242;-86
2023/12/09 02:30:33;;;;;;;19.67;12.30;;;;;;;8.95;100.00;98046.03;4120453;28;20216;-87
2023/12/09 02:32:36;;;;;;;19.42;11.75;;;;;;;8.96;100.00;98047.72;4125389;28;20402;-86
2023/12/09 02:34:40;;;;;;;16.83;11.65;;;;;;;8.96;100.00;98052.09;4141326;28;20209;-86
2023/12/09 02:36:44;;;;;;;21.60;11.65;;;;;;;8.96;100.00;98042.53;4141284;28;20204;-86
2023/12/09 02:38:51;;;;;;;15.30;11.32;;;;;;;8.95;100.00;98046.03;4133689;28;20223;-87
2023/12/09 02:40:56;;;;;;;19.73;12.75;;;;;;;8.95;100.00;98040.84;4140850;28;20591;-87
2023/12/09 02:42:59;;;;;;;15.38;11.35;;;;;;;8.94;100.00;98022.72;4138917;28;20325;-86
2023/12/09 02:45:02;;;;;;;18.65;12.88;;;;;;;8.94;100.00;98023.59;4141108;28;20318;-86
2023/12/09 02:47:04;;;;;;;24.25;13.38;;;;;;;8.92;100.00;98032.41;4141377;28;20215;-87
2023/12/09 02:49:08;;;;;;;19.42;12.15;;;;;;;8.92;100.00;98035.84;4140852;28;20203;-86
2023/12/09 02:51:11;;;;;;;19.40;12.73;;;;;;;8.91;100.00;98016.91;4144305;28;20222;-87
2023/12/09 02:53:15;;;;;;;13.43;9.80;;;;;;;8.89;100.00;98018.78;4149933;28;20203;-86
2023/12/09 02:55:18;;;;;;;15.40;10.30;;;;;;;8.91;100.00;98009.91;4153662;28;20206;-87
2023/12/09 02:57:23;;;;;;;14.68;11.10;;;;;;;8.92;100.00;98013.38;4155898;28;20305;-87
2023/12/09 02:59:28;;;;;;;16.30;11.20;;;;;;;8.93;100.00;98013.28;4135021;28;20307;-86
2023/12/09 03:01:31;;;;;;;16.35;11.55;;;;;;;8.92;100.00;98012.44;4141199;28;20656;-86
2023/12/09 03:03:34;;;;;;;16.85;11.40;;;;;;;8.90;100.00;98005.66;4126145;28;20227;-87
2023/12/09 03:05:37;;;;;;;17.50;11.85;;;;;;;8.90;100.00;98012.63;4138135;28;20239;-86
2023/12/09 03:07:40;;;;;;;18.60;11.93;;;;;;;8.89;100.00;98009.19;4140935;28;20246;-87
2023/12/09 03:09:43;;;;;;;15.07;11.10;;;;;;;8.89;100.00;98005.78;4139058;28;20229;-87
2023/12/09 03:11:47;;;;;;;19.10;12.35;;;;;;;8.89;100.00;98006.59;4141995;28;20211;-86
2023/12/09 03:13:54;;;;;;;27.80;13.47;;;;;;;8.88;100.00;98010.13;4151241;28;20691;-87
2023/12/09 03:15:57;;;;;;;26.70;12.43;;;;;;;8.86;100.00;97996.38;4141805;28;20635;-87
2023/12/09 03:18:00;;;;;;;18.40;11.95;;;;;;;8.86;100.00;97998.16;4128030;28;20729;-87
2023/12/09 03:20:08;;;;;;;17.35;11.18;;;;;;;8.84;100.00;97990.47;4123107;28;20210;-87
2023/12/09 03:22:11;;;;;;;23.10;12.15;;;;;;;8.82;100.00;97994.06;4147056;28;20252;-86
2023/12/09 03:24:14;;;;;;;19.08;12.18;;;;;;;8.78;100.00;97970.03;4135986;28;20267;-87
2023/12/09 03:26:19;;;;;;;17.02;12.50;;;;;;;8.77;100.00;97976.16;4140272;28;20207;-86
2023/12/09 03:28:22;;;;;;;16.85;9.80;;;;;;;8.78;100.00;97982.19;4144202;28;20200;-87
2023/12/09 03:30:27;;;;;;;13.40;10.00;;;;;;;8.79;100.00;97987.28;4139829;28;20253;-86
2023/12/09 03:32:29;;;;;;;16.80;10.27;;;;;;;8.82;100.00;97986.28;4142705;28;20251;-87
2023/12/09 03:34:33;;;;;;;13.35;9.15;;;;;;;8.81;100.00;97982.00;4142994;28;20241;-87
2023/12/09 03:36:36;;;;;;;14.77;10.35;;;;;;;8.83;100.00;97980.16;4140478;28;20250;-87
2023/12/09 03:38:39;;;;;;;13.88;9.98;;;;;;;8.84;100.00;97972.25;4144418;28;20223;-87
2023/12/09 03:40:43;;;;;;;13.85;9.80;;;;;;;8.85;100.00;97980.88;4128052;28;20207;-87
2023/12/09 03:42:47;;;;;;;15.63;10.88;;;;;;;8.83;100.00;97975.78;4141957;28;20263;-86
2023/12/09 03:44:50;;;;;;;15.38;11.38;;;;;;;8.82;100.00;97975.88;4139247;28;20258;-88
2023/12/09 03:46:55;;;;;;;15.93;11.70;;;;;;;8.81;100.00;97975.03;4151654;28;20253;-87
2023/12/09 03:48:58;;;;;;;13.68;9.52;;;;;;;8.83;100.00;97974.94;4156576;28;20235;-87
2023/12/09 03:51:01;;;;;;;12.57;9.45;;;;;;;8.83;100.00;97970.56;4150259;28;20198;-87
2023/12/09 03:53:04;;;;;;;13.68;10.63;;;;;;;8.84;100.00;97979.19;4136380;28;20218;-87
2023/12/09 03:55:07;;;;;;;14.25;9.90;;;;;;;8.84;100.00;97968.78;4140101;28;20223;-86
2023/12/09 03:57:13;;;;;;;13.18;9.63;;;;;;;8.86;100.00;97972.16;4135483;28;20250;-87
2023/12/09 03:59:16;;;;;;;13.13;10.05;;;;;;;8.86;100.00;97967.78;4143047;28;20227;-87
2023/12/09 04:01:22;;;;;;;14.40;10.00;;;;;;;8.87;100.00;97979.88;4158678;28;20203;-87
2023/12/09 04:03:27;;;;;;;13.23;9.27;;;;;;;8.86;100.00;97974.75;4135131;28;20214;-86
2023/12/09 04:05:31;;;;;;;14.15;10.18;;;;;;;8.83;100.00;97969.75;4141530;28;20205;-87
2023/12/09 04:07:34;;;;;;;14.18;11.25;;;;;;;8.79;100.00;97971.69;4142862;28;20202;-87
2023/12/09 04:09:37;;;;;;;18.80;11.57;;;;;;;8.73;100.00;97960.84;4157867;28;20226;-87
2023/12/09 04:11:41;;;;;;;16.52;12.43;;;;;;;8.72;100.00;97966.97;4143884;28;20204;-87
2023/12/09 04:13:44;;;;;;;16.75;11.13;;;;;;;8.69;100.00;97968.03;4136896;28;20596;-87
2023/12/09 04:15:48;;;;;;;32.33;13.40;;;;;;;8.68;100.00;97961.13;4140792;28;20199;-87
2023/12/09 04:17:50;;;;;;;20.80;11.75;;;;;;;8.69;100.00;97960.22;4146110;28;20235;-87
2023/12/09 04:19:55;;;;;;;16.35;11.02;;;;;;;8.67;100.00;97951.66;4142916;28;20231;-87
2023/12/09 04:21:57;;;;;;;14.20;10.02;;;;;;;8.69;100.00;97955.03;4138526;28;20207;-87
2023/12/09 04:24:01;;;;;;;14.88;10.35;;;;;;;8.70;100.00;97958.44;4161076;28;20206;-87
2023/12/09 04:26:04;;;;;;;13.02;10.60;;;;;;;8.69;100.00;97956.75;4145562;28;20223;-86
2023/12/09 04:28:07;;;;;;;12.95;10.32;;;;;;;8.68;100.00;97955.13;4141895;28;20725;-86
2023/12/09 04:30:12;;;;;;;16.73;9.10;;;;;;;8.67;100.00;97950.84;4143933;28;20199;-87
2023/12/09 04:32:15;;;;;;;12.00;9.05;;;;;;;8.66;100.00;97959.56;4138052;28;20229;-86
2023/12/09 04:34:18;;;;;;;16.50;9.75;;;;;;;8.65;100.00;97968.31;4120866;28;20206;-86
2023/12/09 04:36:24;;;;;;;15.27;10.60;;;;;;;8.63;100.00;97959.75;4142371;28;20202;-87
2023/12/09 04:38:27;;;;;;;17.05;10.25;;;;;;;8.63;100.00;97977.94;4145847;28;20719;-86
2023/12/09 04:40:30;;;;;;;14.05;9.85;;;;;;;8.63;100.00;97984.00;4128285;28;20240;-86
2023/12/09 04:42:32;;;;;;;25.08;10.82;;;;;;;8.62;100.00;97981.50;4127687;28;20641;-87
2023/12/09 04:44:36;;;;;;;30.23;10.75;;;;;;;8.60;100.00;97985.94;4146855;28;20309;-86
2023/12/09 04:46:39;;;;;;;27.75;10.75;;;;;;;8.58;100.00;97977.41;4140462;28;20200;-87
2023/12/09 04:48:43;;;;;;;25.45;11.65;;;;;;;8.55;100.00;97990.59;4137651;28;20317;-87
2023/12/09 04:50:47;;;;;;;22.08;11.15;;;;;;;8.53;100.00;97985.47;4145040;28;20235;-87
2023/12/09 04:52:51;;;;;;;39.28;11.52;;;;;;;8.50;100.00;97995.25;4151588;28;20206;-86
2023/12/09 04:54:54;;;;;;;39.05;11.05;;;;;;;8.49;100.00;97990.97;4157213;28;20203;-87
2023/12/09 04:56:57;;;;;;;26.77;10.82;;;;;;;8.46;100.00;97983.34;4141335;28;20299;-86
2023/12/09 04:59:01;;;;;;;21.23;9.52;;;;;;;8.41;100.00;97990.63;4124087;28;20305;-87
2023/12/09 05:01:06;;;;;;;31.27;11.70;;;;;;;8.38;100.00;97983.00;4154284;28;20890;-87
2023/12/09 05:03:10;;;;;;;23.65;11.05;;;;;;;8.38;100.00;97985.59;4138671;28;20218;-87
2023/12/09 05:05:14;;;;;;;30.00;11.05;;;;;;;8.33;100.00;97977.25;4158258;28;20861;-86
2023/12/09 05:07:17;;;;;;;21.85;11.10;;;;;;;8.32;100.00;97985.97;4118803;28;20311;-86
2023/12/09 05:09:22;;;;;;;20.10;10.55;;;;;;;8.33;100.00;97990.25;4142173;28;20618;-87
2023/12/09 05:11:28;;;;;;;30.98;11.52;;;;;;;8.33;100.00;97982.47;4141295;28;20555;-87
2023/12/09 05:13:31;;;;;;;26.92;12.52;;;;;;;8.25;100.00;97978.66;4134569;28;20234;-86
2023/12/09 05:15:34;;;;;;;19.95;11.13;;;;;;;8.24;100.00;97969.19;4150073;28;20733;-87
2023/12/09 05:17:37;;;;;;;20.50;11.02;;;;;;;8.25;100.00;97971.69;4154769;28;20210;-87
2023/12/09 05:19:40;;;;;;;25.52;10.95;;;;;;;8.24;100.00;97966.56;4156543;28;20231;-87
2023/12/09 05:21:44;;;;;;;20.98;9.70;;;;;;;8.22;100.00;97961.47;4143893;28;20216;-86
2023/12/09 05:23:48;;;;;;;20.73;10.20;;;;;;;8.22;100.00;97968.44;4141124;28;20298;-86
2023/12/09 05:25:52;;;;;;;30.77;10.60;;;;;;;8.20;100.00;97960.75;4137434;28;20217;-86
2023/12/09 05:27:55;;;;;;;21.20;10.60;;;;;;;8.18;100.00;97956.59;4135992;28;20242;-86
2023/12/09 05:29:58;;;;;;;14.18;9.05;;;;;;;8.18;100.00;97954.00;4153127;28;20769;-86
2023/12/09 05:32:01;;;;;;;14.80;9.10;;;;;;;8.17;100.00;97942.75;4135775;28;20231;-86
2023/12/09 05:34:04;;;;;;;11.23;7.60;;;;;;;8.20;100.00;97947.75;4141743;28;20211;-87
2023/12/09 05:36:09;;;;;;;12.90;7.95;;;;;;;8.24;100.00;97954.44;4138912;28;20203;-87
2023/12/09 05:38:12;;;;;;;11.50;7.82;;;;;;;8.27;100.00;97956.00;4135616;28;20214;-87
2023/12/09 05:40:15;;;;;;;12.40;7.93;;;;;;;8.27;100.00;97953.41;4126410;28;20251;-87
2023/12/09 05:42:19;;;;;;;12.50;8.30;;;;;;;8.27;100.00;97951.66;4121774;28;20221;-87
2023/12/09 05:44:22;;;;;;;13.13;9.02;;;;;;;8.32;100.00;97953.97;4117705;28;20204;-87
2023/12/09 05:46:25;;;;;;;15.30;8.23;;;;;;;8.32;100.00;97959.19;4134280;28;20235;-86
2023/12/09 05:48:29;;;;;;;11.10;7.80;;;;;;;8.30;100.00;97945.41;4144057;28;20210;-86
2023/12/09 05:50:32;;;;;;;10.00;7.40;;;;;;;8.30;100.00;97943.69;4124599;28;20210;-87
2023/12/09 05:52:35;;;;;;;12.50;7.85;;;;;;;8.34;100.00;97942.53;4130271;28;20209;-87
2023/12/09 05:54:39;;;;;;;9.63;7.63;;;;;;;8.36;100.00;97947.66;4142913;28;20756;-87
2023/12/09 05:56:47;;;;;;;11.27;7.80;;;;;;;8.36;100.00;97956.28;4143446;28;20231;-86
2023/12/09 05:58:51;;;;;;;11.38;8.00;;;;;;;8.36;100.00;97938.09;4126051;28;20720;-87
2023/12/09 06:00:54;;;;;;;11.10;7.70;;;;;;;8.37;100.00;97944.13;4139625;28;20812;-86
2023/12/09 06:02:57;;;;;;;13.00;6.40;;;;;;;8.37;100.00;97942.34;4153136;28;20744;-87
2023/12/09 06:05:00;;;;;;;13.30;7.35;;;;;;;8.41;100.00;97949.03;4137216;28;20200;-86
2023/12/09 06:07:04;;;;;;;11.10;6.47;;;;;;;8.42;100.00;97950.72;4118196;28;20256;-86
2023/12/09 06:09:09;;;;;;;12.05;7.75;;;;;;;8.42;100.00;97955.06;4116671;28;20196;-87
2023/12/09 06:11:12;;;;;;;10.48;7.68;;;;;;;8.41;100.00;97949.03;4124898;28;20203;-86
2023/12/09 06:13:14;;;;;;;11.48;7.78;;;;;;;8.43;100.00;97946.34;4138351;28;20793;-86
2023/12/09 06:15:19;;;;;;;10.63;6.25;;;;;;;8.45;100.00;97946.16;4142533;28;20668;-87
2023/12/09 06:17:22;;;;;;;11.13;7.13;;;;;;;8.46;100.00;97947.84;4128465;28;20270;-86
2023/12/09 06:19:25;;;;;;;9.98;7.22;;;;;;;8.48;100.00;97945.13;4143136;28;20666;-86
2023/12/09 06:21:29;;;;;;;9.93;6.95;;;;;;;8.49;100.00;97928.59;4143299;28;20273;-86
2023/12/09 06:23:32;;;;;;;13.13;9.33;;;;;;;8.50;100.00;97938.06;4139628;28;20202;-87
2023/12/09 06:25:35;;;;;;;12.65;9.75;;;;;;;8.49;100.00;97942.44;4118057;28;20696;-86
2023/12/09 06:27:39;;;;;;;12.10;8.75;;;;;;;8.49;100.00;97941.59;4140138;28;20222;-86
2023/12/09 06:29:42;;;;;;;11.43;8.18;;;;;;;8.48;100.00;97934.75;4140674;28;20235;-86
2023/12/09 06:31:45;;;;;;;11.60;7.35;;;;;;;8.49;100.00;97928.59;4153551;28;21482;-86
2023/12/09 06:33:48;;;;;;;11.25;7.85;;;;;;;8.48;100.00;97927.78;4139857;28;20216;-86
2023/12/09 06:35:51;;;;;;;13.75;8.23;;;;;;;8.47;100.00;97927.88;4157392;28;20289;-86
2023/12/09 06:37:54;;;;;;;11.77;8.55;;;;;;;8.47;100.00;97922.66;4141185;28;20214;-87
2023/12/09 06:39:58;;;;;;;9.95;7.47;;;;;;;8.44;100.00;97913.28;4139945;28;20230;-86
2023/12/09 06:42:00;;;;;;;14.32;7.07;;;;;;;8.48;100.00;97924.34;4142391;28;20206;-87
2023/12/09 06:44:03;;;;;;;15.30;7.28;;;;;;;8.50;100.00;97919.88;4156184;28;20246;-86
2023/12/09 06:46:07;;;;;;;11.88;7.93;;;;;;;8.52;100.00;97921.47;4150348;28;20214;-86
2023/12/09 06:48:11;;;;;;;18.42;9.85;;;;;;;8.50;100.00;97918.09;4155129;28;20622;-86
2023/12/09 06:50:14;;;;;;;14.43;10.35;;;;;;;8.49;100.00;97916.47;4125967;28;20222;-86
2023/12/09 06:52:17;;;;;;;13.63;9.82;;;;;;;8.45;100.00;97916.75;4161499;28;20296;-87
2023/12/09 06:54:20;;;;;;;14.43;9.63;;;;;;;8.45;100.00;97911.56;4138240;28;20243;-86
2023/12/09 06:56:23;;;;;;;11.18;8.05;;;;;;;8.45;100.00;97914.16;4144218;28;20200;-86
2023/12/09 06:58:27;;;;;;;14.18;9.85;;;;;;;8.45;100.00;97920.16;4141045;28;20290;-86
2023/12/09 07:00:30;;;;;;;17.13;9.82;;;;;;;8.45;100.00;97920.16;4142147;28;20242;-86
2023/12/09 07:02:33;;;;;;;11.10;7.05;;;;;;;8.44;100.00;97922.03;4145484;28;20215;-87
2023/12/09 07:04:56;;;;;;;10.68;7.25;;;;;;;8.42;100.00;97911.75;4144880;28;20284;-87
2023/12/09 07:07:01;;;;;;;9.18;7.53;;;;;;;8.44;100.00;97907.28;4143125;28;20623;-87
2023/12/09 07:09:04;;;;;;;10.80;7.03;;;;;;;8.44;100.00;97908.09;4139190;28;20537;-87
2023/12/09 07:11:09;;;;;;;11.67;7.20;;;;;;;8.49;100.00;97905.22;4146542;28;20588;-87
2023/12/09 07:13:12;;;;;;;10.35;7.10;;;;;;;8.54;100.00;97908.38;4126094;28;20647;-87
2023/12/09 07:15:15;;;;;;;11.73;7.40;;;;;;;8.56;100.00;97902.13;4144585;28;20210;-87
2023/12/09 07:17:19;;;;;;;13.85;9.80;;;;;;;8.56;100.00;97909.09;4141135;28;20210;-87
2023/12/09 07:19:22;;;;;;;15.32;9.68;;;;;;;8.54;100.00;97913.56;4139784;28;20644;-86
2023/12/09 07:21:27;;;;;;;14.53;9.30;;;;;;;8.52;100.00;97915.41;4139502;28;20231;-85
2023/12/09 07:23:30;;;;;;;15.17;9.67;;;;;;;8.50;100.00;97919.88;4141447;28;20610;-84
2023/12/09 07:25:33;;;;;;;14.48;9.82;;;;;;;8.51;100.00;97918.97;4152182;28;20622;-85
2023/12/09 07:27:37;;;;;;;13.02;9.65;;;;;;;8.51;100.00;97916.38;4125645;28;20219;-87
2023/12/09 07:29:40;;;;;;;14.65;9.38;;;;;;;8.53;100.00;97917.09;4143797;28;20247;-86
2023/12/09 07:31:43;;;;;;;18.92;10.27;;;;;;;8.54;100.00;97919.59;4136349;28;20223;-85
2023/12/09 07:33:46;;;;;;;14.00;10.05;;;;;;;8.54;100.00;97919.59;4137184;28;20215;-87
2023/12/09 07:35:49;;;;;;;14.18;9.90;;;;;;;8.52;100.00;97925.81;4127276;28;20208;-87
2023/12/09 07:37:55;;;;;;;18.15;11.90;;;;;;;8.52;100.00;97931.00;4123382;28;20939;-86
2023/12/09 07:39:58;;;;;;;18.08;11.07;;;;;;;8.52;100.00;97931.00;4137077;28;20223;-86
2023/12/09 07:42:01;;;;;;;35.00;19.63;;;;;;;8.53;100.00;97938.72;4122555;28;20798;-86
2023/12/09 07:44:04;;;;;;;57.70;34.47;;;;;;;8.53;100.00;97924.88;4135418;28;20240;-86
2023/12/09 07:46:08;;;;;;;16.02;11.68;;;;;;;8.54;100.00;97929.16;4140685;28;20683;-86
2023/12/09 07:48:11;;;;;;;15.25;10.25;;;;;;;8.55;100.00;97923.03;4141651;28;20261;-86
2023/12/09 07:50:14;;;;;;;15.33;10.27;;;;;;;8.54;100.00;97927.41;4152519;28;20207;-86
2023/12/09 07:52:17;;;;;;;12.77;8.45;;;;;;;8.56;100.00;97922.91;4141189;28;21160;-86
2023/12/09 07:54:22;;;;;;;11.00;7.32;;;;;;;8.57;100.00;97918.59;4126059;28;20231;-85
2023/12/09 07:56:25;;;;;;;8.07;6.18;;;;;;;8.63;100.00;97929.41;4122569;28;20209;-86
2023/12/09 07:58:28;;;;;;;27.27;16.20;;;;;;;8.70;100.00;97932.44;4138790;28;20619;-85
2023/12/09 08:00:31;;;;;;;33.97;29.23;;;;;;;8.76;100.00;97926.84;4140491;28;20644;-85
2023/12/09 08:02:35;;;;;;;139.50;109.20;;;;;;;8.78;100.00;97925.00;4157424;28;20231;-84
2023/12/09 08:04:38;;;;;;;18.67;12.95;;;;;;;8.79;100.00;97922.28;4152250;28;20236;-87
2023/12/09 08:06:42;;;;;;;13.45;8.73;;;;;;;8.79;100.00;97916.25;4155260;28;20218;-87
2023/12/09 08:08:46;;;;;;;30.00;19.42;;;;;;;8.80;100.00;97912.75;4145511;28;20290;-86
2023/12/09 08:10:51;;;;;;;14.55;9.25;;;;;;;8.78;100.00;97912.00;4159768;28;20680;-86
2023/12/09 08:12:53;;;;;;;14.43;8.73;;;;;;;8.78;100.00;97909.38;4156242;28;20203;-87
2023/12/09 08:14:56;;;;;;;16.15;7.80;;;;;;;8.80;100.00;97907.53;4145150;28;20217;-87
2023/12/09 08:17:00;;;;;;;11.38;7.70;;;;;;;8.80;100.00;97899.75;4123342;28;20235;-88
2023/12/09 08:19:03;;;;;;;10.43;6.90;;;;;;;8.83;100.00;97902.16;4144928;28;20210;-88
2023/12/09 08:21:07;;;;;;;16.98;8.55;;;;;;;8.87;100.00;97906.19;4149286;28;20681;-88
2023/12/09 08:23:11;;;;;;;13.48;7.78;;;;;;;8.89;100.00;97904.34;4160968;28;20213;-88
2023/12/09 08:25:13;;;;;;;19.20;11.20;;;;;;;8.89;100.00;97896.56;4146658;28;20204;-88
2023/12/09 08:27:18;;;;;;;19.27;11.65;;;;;;;8.92;100.00;97900.59;4128939;28;20251;-88
2023/12/09 08:29:22;;;;;;;20.07;12.73;;;;;;;8.93;100.00;97896.25;4124350;28;20212;-89
2023/12/09 08:31:28;;;;;;;12.15;8.30;;;;;;;8.93;100.00;97881.47;4142232;28;21673;-87
2023/12/09 08:33:32;;;;;;;10.43;7.88;;;;;;;8.96;100.00;97881.28;4156958;28;20612;-88
2023/12/09 08:35:34;;;;;;;12.60;8.75;;;;;;;8.99;100.00;97886.28;4144859;28;20807;-88
2023/12/09 08:37:40;;;;;;;13.30;8.00;;;;;;;9.02;100.00;97887.81;4145822;28;20210;-89
2023/12/09 08:39:44;;;;;;;8.98;6.40;;;;;;;9.04;100.00;97883.38;4138574;28;20211;-92
2023/12/09 08:41:48;;;;;;;8.60;6.00;;;;;;;9.06;100.00;97887.53;4120512;28;20226;-91
2023/12/09 08:43:52;;;;;;;8.52;5.40;;;;;;;9.07;100.00;97878.81;4132905;28;20955;-90
2023/12/09 08:45:55;;;;;;;9.00;5.10;;;;;;;9.11;100.00;97879.41;4140543;28;20278;-89
2023/12/09 08:47:59;;;;;;;6.50;4.35;;;;;;;9.14;100.00;97880.06;4141055;28;20219;-88
2023/12/09 08:50:03;;;;;;;7.80;5.13;;;;;;;9.21;100.00;97877.91;4136126;28;20232;-89
2023/12/09 08:52:19;;;;;;;12.27;5.20;;;;;;;9.26;100.00;97881.00;4122004;28;20842;-89
2023/12/09 08:54:22;;;;;;;13.60;8.35;;;;;;;9.30;100.00;97885.91;4123360;28;20217;-90
2023/12/09 08:56:25;;;;;;;10.45;7.90;;;;;;;9.31;100.00;97887.59;4122454;28;20255;-90
2023/12/09 08:58:29;;;;;;;18.13;13.50;;;;;;;9.29;100.00;97894.69;4126893;28;20243;-89
2023/12/09 09:00:34;;;;;;;18.77;14.05;;;;;;;9.29;100.00;97899.03;4142522;28;20203;-89
2023/12/09 09:02:37;;;;;;;20.27;13.85;;;;;;;9.26;100.00;97887.06;4151031;28;20611;-89
2023/12/09 09:04:41;;;;;;;14.43;11.45;;;;;;;9.30;100.00;97892.91;4128851;28;20584;-89
2023/12/09 09:06:45;;;;;;;19.00;11.52;;;;;;;9.34;100.00;97878.75;4136060;28;20238;-90
2023/12/09 09:08:49;;;;;;;13.13;6.35;;;;;;;9.34;100.00;97876.97;4142548;28;20203;-88
2023/12/09 09:10:52;;;;;;;9.13;6.75;;;;;;;9.36;100.00;97882.91;4144468;28;20282;-90
2023/12/09 09:12:56;;;;;;;11.18;6.78;;;;;;;9.39;100.00;97882.69;4128824;28;20271;-90
2023/12/09 09:14:59;;;;;;;6.30;4.78;;;;;;;9.40;99.94;97879.16;4146696;28;20231;-89
2023/12/09 09:17:09;;;;;;;7.45;4.80;;;;;;;9.41;99.90;97865.19;4143813;28;20203;-87
2023/12/09 09:19:12;;;;;;;6.93;5.00;;;;;;;9.44;99.45;97883.22;4140872;28;20215;-87
2023/12/09 09:21:17;;;;;;;10.00;5.00;;;;;;;9.46;99.29;97878.75;4142984;28;20219;-87
2023/12/09 09:23:20;;;;;;;14.23;9.50;;;;;;;9.50;99.16;97864.59;4123141;28;20226;-86
2023/12/09 09:25:23;;;;;;;7.82;4.75;;;;;;;9.52;98.36;97855.75;4143324;28;20257;-88
2023/12/09 09:27:27;;;;;;;8.48;5.05;;;;;;;9.57;98.37;97850.22;4122791;28;20220;-86
2023/12/09 09:29:30;;;;;;;12.93;6.50;;;;;;;9.58;97.65;97855.31;4156876;28;20282;-88
2023/12/09 09:31:34;;;;;;;9.38;5.43;;;;;;;9.59;97.48;97846.59;4158463;28;20296;-88
2023/12/09 09:33:38;;;;;;;7.95;4.32;;;;;;;9.62;97.31;97845.53;4121801;28;20218;-88